Time;durP1;ratioP1;P1;durP2;ratioP2;P2;SDS_P1;SDS_P2;PMS_P1;PMS_P2;Temp;Humidity;BMP_temperature;BMP_pressure;BME280_temperature;BME280_humidity;BME280_pressure;Samples;Min_cycle;Max_cycle;Signal;HPM_P1;HPM_P2
2021/01/19 00:00:37;;;;;;;13.15;5.65;;;5.10;86.20;;;;;;5049479;28;20067;-73
2021/01/19 00:03:02;;;;;;;13.70;5.80;;;5.10;86.00;;;;;;5050141;28;20041;-76
2021/01/19 00:05:28;;;;;;;16.00;6.05;;;5.10;86.10;;;;;;5048227;28;20063;-74
2021/01/19 00:07:54;;;;;;;14.25;6.03;;;5.10;86.10;;;;;;5051375;28;20116;-78
2021/01/19 00:10:19;;;;;;;14.30;5.72;;;5.10;86.20;;;;;;5048761;28;20045;-74
2021/01/19 00:12:45;;;;;;;13.40;5.78;;;5.10;86.20;;;;;;5049308;28;20544;-73
2021/01/19 00:15:11;;;;;;;17.55;6.00;;;5.10;86.30;;;;;;5044666;28;20126;-75
2021/01/19 00:17:37;;;;;;;18.98;6.82;;;5.00;86.40;;;;;;5046684;28;20037;-73
2021/01/19 00:20:05;;;;;;;15.63;6.65;;;5.00;86.40;;;;;;5047575;28;20033;-74
2021/01/19 00:22:32;;;;;;;14.85;6.32;;;5.00;86.50;;;;;;5048938;28;20484;-74
2021/01/19 00:24:58;;;;;;;18.02;7.45;;;4.90;86.80;;;;;;5049820;28;20037;-74
2021/01/19 00:27:24;;;;;;;20.95;6.95;;;4.90;86.70;;;;;;5050882;28;20484;-77
2021/01/19 00:29:50;;;;;;;18.27;7.00;;;4.90;86.80;;;;;;5048516;28;20029;-72
2021/01/19 00:32:15;;;;;;;19.95;7.00;;;4.90;87.10;;;;;;5053035;28;20123;-74
2021/01/19 00:34:41;;;;;;;21.80;7.93;;;4.90;87.10;;;;;;5043430;28;20048;-76
2021/01/19 00:37:07;;;;;;;16.95;7.60;;;4.90;87.30;;;;;;5049670;28;20430;-76
2021/01/19 00:39:32;;;;;;;16.13;7.30;;;4.90;87.50;;;;;;5051804;28;20036;-75
2021/01/19 00:41:58;;;;;;;22.15;8.23;;;4.90;87.60;;;;;;5050946;28;20024;-74
2021/01/19 00:44:23;;;;;;;21.20;7.65;;;4.90;87.70;;;;;;5047695;28;20036;-75
2021/01/19 00:46:51;;;;;;;18.00;8.45;;;4.90;88.00;;;;;;5050046;28;20123;-74
2021/01/19 00:49:17;;;;;;;21.92;9.80;;;4.90;87.90;;;;;;5043697;28;20033;-75
2021/01/19 00:51:42;;;;;;;16.80;8.25;;;5.00;88.00;;;;;;5044730;28;20044;-77
2021/01/19 00:54:08;;;;;;;16.67;7.72;;;4.90;88.00;;;;;;5049958;28;20515;-74
2021/01/19 00:56:42;;;;;;;20.67;8.60;;;5.00;88.00;;;;;;5045527;28;20029;-75
2021/01/19 00:59:08;;;;;;;23.60;8.52;;;5.00;88.10;;;;;;5046190;28;20444;-75
2021/01/19 01:01:35;;;;;;;21.90;8.52;;;5.00;88.30;;;;;;5047437;28;20123;-75
2021/01/19 01:04:01;;;;;;;19.73;9.32;;;4.90;88.60;;;;;;5046874;28;20025;-76
2021/01/19 01:06:26;;;;;;;21.27;8.73;;;4.90;88.80;;;;;;5045282;28;20476;-75
2021/01/19 01:08:52;;;;;;;22.05;8.75;;;5.00;88.90;;;;;;5046196;28;20041;-76
2021/01/19 01:11:19;;;;;;;20.48;10.00;;;5.00;89.00;;;;;;5044748;28;20044;-79
2021/01/19 01:13:45;;;;;;;19.85;9.23;;;5.00;89.20;;;;;;5045665;28;20503;-75
2021/01/19 01:16:12;;;;;;;23.05;9.52;;;5.00;89.30;;;;;;5046424;28;20044;-74
2021/01/19 01:18:38;;;;;;;21.17;10.00;;;5.00;89.60;;;;;;5046344;28;20033;-75
2021/01/19 01:21:04;;;;;;;21.60;9.75;;;5.00;89.90;;;;;;5042650;28;20396;-76
2021/01/19 01:23:30;;;;;;;22.88;10.70;;;5.00;90.10;;;;;;5048177;28;20273;-74
2021/01/19 01:25:55;;;;;;;26.20;10.50;;;4.90;90.50;;;;;;5053472;28;20029;-75
2021/01/19 01:28:21;;;;;;;21.77;11.35;;;5.00;90.60;;;;;;5046516;28;20041;-77
2021/01/19 01:30:47;;;;;;;24.60;10.50;;;5.00;90.60;;;;;;5046767;28;20033;-77
2021/01/19 01:33:12;;;;;;;22.77;10.57;;;5.00;90.80;;;;;;5052158;28;20033;-78
2021/01/19 01:35:38;;;;;;;19.60;11.13;;;4.90;90.80;;;;;;5045956;28;21789;-75
2021/01/19 01:38:04;;;;;;;26.55;11.45;;;5.00;90.90;;;;;;5045989;28;20040;-75
2021/01/19 01:40:30;;;;;;;20.33;11.73;;;5.00;91.00;;;;;;5047692;28;20043;-75
2021/01/19 01:42:57;;;;;;;23.75;11.43;;;5.00;91.00;;;;;;5046875;28;20115;-74
2021/01/19 01:45:24;;;;;;;20.98;11.07;;;5.10;91.10;;;;;;5045264;28;20037;-74
2021/01/19 01:47:52;;;;;;;20.60;10.85;;;5.10;91.10;;;;;;5047541;28;20047;-78
2021/01/19 01:50:18;;;;;;;28.23;12.45;;;5.10;91.20;;;;;;5045882;28;20048;-78
2021/01/19 01:52:45;;;;;;;21.55;11.50;;;5.10;91.30;;;;;;5045081;28;20044;-75
2021/01/19 01:55:11;;;;;;;23.40;11.13;;;5.10;91.30;;;;;;5048977;28;20496;-74
2021/01/19 01:57:38;;;;;;;21.20;11.35;;;5.10;91.20;;;;;;5044167;28;20049;-75
2021/01/19 02:00:09;;;;;;;27.60;12.27;;;5.10;91.20;;;;;;5046406;28;20545;-75
2021/01/19 02:02:49;;;;;;;25.27;12.82;;;5.00;91.30;;;;;;5056209;28;20071;-74
2021/01/19 02:05:15;;;;;;;31.38;12.95;;;5.10;91.40;;;;;;5046243;28;20047;-76
2021/01/19 02:08:02;;;;;;;25.30;12.63;;;5.10;91.30;;;;;;5049778;28;20045;-78
2021/01/19 02:10:42;;;;;;;23.10;12.45;;;5.10;91.30;;;;;;5050843;28;20083;-74
2021/01/19 02:13:40;;;;;;;23.75;11.60;;;5.10;91.30;;;;;;5047851;28;20111;-74
2021/01/19 02:16:30;;;;;;;22.48;12.50;;;5.10;91.30;;;;;;5042521;28;20128;-76
2021/01/19 02:19:12;;;;;;;21.90;12.13;;;5.10;91.30;;;;;;5045646;28;20044;-74
2021/01/19 02:21:59;;;;;;;25.45;12.85;;;5.10;91.40;;;;;;5043553;28;20057;-77
2021/01/19 02:25:02;;;;;;;26.85;12.52;;;5.10;91.60;;;;;;5044890;28;20067;-75
2021/01/19 02:27:44;;;;;;;22.38;12.10;;;5.10;91.60;;;;;;5046347;28;20055;-75
2021/01/19 02:30:21;;;;;;;28.85;13.05;;;5.10;91.60;;;;;;5050357;28;20488;-75
2021/01/19 02:33:31;;;;;;;25.35;12.70;;;5.10;91.70;;;;;;5050223;28;20036;-75
2021/01/19 02:36:18;;;;;;;19.63;11.60;;;5.10;91.80;;;;;;5041515;28;20033;-75
2021/01/19 02:38:48;;;;;;;24.70;12.05;;;5.20;91.70;;;;;;5045735;28;20092;-78
2021/01/19 02:41:17;;;;;;;25.02;11.95;;;5.10;91.70;;;;;;5054888;28;20064;-74
2021/01/19 02:43:56;;;;;;;23.73;12.50;;;5.20;91.80;;;;;;5048860;28;20029;-74
2021/01/19 02:46:25;;;;;;;25.67;11.73;;;5.20;91.80;;;;;;5047178;28;20091;-74
2021/01/19 02:48:54;;;;;;;18.88;12.00;;;5.30;91.80;;;;;;5047835;28;20041;-74
2021/01/19 02:51:23;;;;;;;21.27;12.48;;;5.30;91.70;;;;;;5052095;28;20032;-75
2021/01/19 02:53:53;;;;;;;23.35;11.45;;;5.30;91.50;;;;;;5049985;28;20025;-76
2021/01/19 02:56:40;;;;;;;20.73;10.98;;;5.30;91.50;;;;;;5049966;28;20388;-75
2021/01/19 02:59:17;;;;;;;19.70;10.75;;;5.40;91.40;;;;;;5046808;28;20056;-76
2021/01/19 03:02:09;;;;;;;23.75;11.75;;;5.40;91.40;;;;;;5049753;28;20044;-74
2021/01/19 03:04:36;;;;;;;25.50;11.77;;;5.40;91.30;;;;;;5046670;28;20045;-75
2021/01/19 03:07:06;;;;;;;21.63;11.45;;;5.40;91.20;;;;;;5049246;28;20056;-74
2021/01/19 03:09:37;;;;;;;20.27;10.98;;;5.40;91.20;;;;;;5050060;28;20551;-75
2021/01/19 03:12:03;;;;;;;19.85;11.13;;;5.50;91.20;;;;;;5049968;28;20048;-75
2021/01/19 03:14:29;;;;;;;21.90;10.90;;;5.50;91.10;;;;;;5051484;28;20036;-74
2021/01/19 03:17:03;;;;;;;24.63;10.68;;;5.50;91.20;;;;;;5053518;28;20037;-76
2021/01/19 03:19:30;;;;;;;22.95;10.68;;;5.50;91.20;;;;;;5050669;28;20037;-74
2021/01/19 03:21:55;;;;;;;22.40;11.18;;;5.50;91.10;;;;;;5049673;28;20029;-75
2021/01/19 03:24:21;;;;;;;19.95;10.73;;;5.50;91.10;;;;;;5049674;28;20040;-75
2021/01/19 03:26:46;;;;;;;18.20;9.90;;;5.50;91.10;;;;;;5050652;28;20486;-75
2021/01/19 03:29:12;;;;;;;20.58;10.13;;;5.60;91.10;;;;;;5048589;28;20048;-74
2021/01/19 03:31:38;;;;;;;21.63;10.07;;;5.60;91.00;;;;;;5049250;28;20168;-75
2021/01/19 03:34:03;;;;;;;22.23;9.68;;;5.60;90.90;;;;;;5048799;28;20049;-76
2021/01/19 03:36:29;;;;;;;17.35;9.80;;;5.60;91.00;;;;;;5050440;28;20468;-74
2021/01/19 03:38:54;;;;;;;17.85;9.73;;;5.60;91.10;;;;;;5047302;28;20040;-74
2021/01/19 03:41:20;;;;;;;18.48;9.75;;;5.60;91.10;;;;;;5048761;28;20111;-74
2021/01/19 03:43:46;;;;;;;21.77;10.32;;;5.60;91.00;;;;;;5047720;28;20032;-75
2021/01/19 03:46:11;;;;;;;21.15;10.20;;;5.60;91.00;;;;;;5049335;28;20040;-76
2021/01/19 03:48:37;;;;;;;19.20;9.27;;;5.70;90.80;;;;;;5046410;28;20045;-75
2021/01/19 03:51:03;;;;;;;16.73;8.98;;;5.70;90.90;;;;;;5049255;28;20033;-75
2021/01/19 03:53:28;;;;;;;17.30;9.57;;;5.70;90.90;;;;;;5052463;28;20033;-76
2021/01/19 03:55:54;;;;;;;18.30;8.93;;;5.70;91.00;;;;;;5049852;28;20036;-74
2021/01/19 03:58:20;;;;;;;18.17;9.27;;;5.70;91.20;;;;;;5049083;28;20262;-75
2021/01/19 04:00:45;;;;;;;21.38;9.70;;;5.60;91.30;;;;;;5064729;28;20084;-75
2021/01/19 04:03:11;;;;;;;22.88;8.70;;;5.60;91.30;;;;;;5049474;28;20548;-79
2021/01/19 04:05:37;;;;;;;26.48;8.73;;;5.70;91.40;;;;;;5050918;28;20051;-74
2021/01/19 04:08:02;;;;;;;15.48;8.02;;;5.70;91.20;;;;;;5048417;28;20484;-74
2021/01/19 04:10:28;;;;;;;19.65;8.50;;;5.70;91.20;;;;;;5046459;28;20472;-75
2021/01/19 04:12:54;;;;;;;19.05;9.05;;;5.70;91.20;;;;;;5049483;28;20483;-75
2021/01/19 04:15:19;;;;;;;21.05;7.70;;;5.70;91.10;;;;;;5051615;28;20029;-75
2021/01/19 04:17:45;;;;;;;19.45;8.43;;;5.80;91.20;;;;;;5052855;28;20449;-74
2021/01/19 04:20:11;;;;;;;18.73;8.52;;;5.80;91.30;;;;;;5048169;28;20053;-76
2021/01/19 04:22:37;;;;;;;21.60;8.52;;;5.80;91.30;;;;;;5047829;28;20116;-75
2021/01/19 04:25:04;;;;;;;22.52;7.95;;;5.80;91.40;;;;;;5048531;28;20542;-74
2021/01/19 04:27:30;;;;;;;18.55;7.50;;;5.80;91.50;;;;;;5047532;28;20045;-75
2021/01/19 04:29:56;;;;;;;17.15;7.45;;;5.80;91.60;;;;;;5049905;28;20037;-74
2021/01/19 04:32:22;;;;;;;21.80;7.45;;;5.80;91.60;;;;;;5045312;28;20060;-74
2021/01/19 04:34:47;;;;;;;19.20;7.35;;;5.80;91.60;;;;;;5050112;28;20440;-76
2021/01/19 04:37:13;;;;;;;18.08;7.65;;;5.90;91.70;;;;;;5045390;28;20040;-75
2021/01/19 04:39:39;;;;;;;17.33;6.95;;;5.90;91.70;;;;;;5050306;28;20076;-76
2021/01/19 04:42:05;;;;;;;20.60;7.60;;;5.90;91.70;;;;;;5046704;28;20464;-75
2021/01/19 04:44:31;;;;;;;16.83;6.32;;;5.90;91.70;;;;;;5050710;28;20044;-74
2021/01/19 04:46:57;;;;;;;18.77;6.05;;;6.00;91.70;;;;;;5047305;28;20029;-75
2021/01/19 04:49:24;;;;;;;19.00;6.63;;;6.00;91.70;;;;;;5049374;28;20125;-74
2021/01/19 04:51:51;;;;;;;13.90;5.85;;;6.00;91.70;;;;;;5050125;28;20025;-75
2021/01/19 04:54:18;;;;;;;19.98;6.05;;;6.00;91.90;;;;;;5050792;28;20037;-75
2021/01/19 04:56:54;;;;;;;20.42;6.32;;;6.00;91.90;;;;;;5048815;28;20033;-75
2021/01/19 04:59:24;;;;;;;14.90;5.47;;;6.00;91.90;;;;;;5047475;28;20041;-74
2021/01/19 05:02:03;;;;;;;14.32;5.80;;;6.00;91.90;;;;;;5045235;28;20063;-75
2021/01/19 05:04:50;;;;;;;14.80;5.43;;;6.00;92.00;;;;;;5045674;28;20120;-74
2021/01/19 05:07:34;;;;;;;17.27;5.90;;;6.00;92.10;;;;;;5049650;28;20069;-76
2021/01/19 05:10:11;;;;;;;15.25;6.00;;;6.00;92.30;;;;;;5049317;28;20111;-74
2021/01/19 05:12:42;;;;;;;12.55;5.15;;;6.00;92.30;;;;;;5047489;28;20140;-75
2021/01/19 05:15:15;;;;;;;17.70;5.75;;;6.10;92.20;;;;;;5044359;28;20059;-74
2021/01/19 05:17:42;;;;;;;19.92;5.75;;;6.10;92.20;;;;;;5043792;28;20507;-74
2021/01/19 05:20:11;;;;;;;14.20;5.30;;;6.10;92.20;;;;;;5052745;28;20037;-77
2021/01/19 05:22:37;;;;;;;17.60;5.30;;;6.10;92.20;;;;;;5044704;28;20035;-76
2021/01/19 05:25:04;;;;;;;14.25;5.63;;;6.10;92.30;;;;;;5056582;28;20503;-74
2021/01/19 05:27:30;;;;;;;15.68;5.10;;;6.10;92.20;;;;;;5046378;28;20095;-74
2021/01/19 05:30:05;;;;;;;12.48;5.28;;;6.10;92.20;;;;;;5047859;28;20029;-77
2021/01/19 05:32:38;;;;;;;16.45;4.57;;;6.10;92.40;;;;;;5047864;28;20040;-76
2021/01/19 05:35:15;;;;;;;12.27;4.60;;;6.10;92.40;;;;;;5047680;28;20040;-77
2021/01/19 05:37:42;;;;;;;17.42;4.95;;;6.10;92.40;;;;;;5049824;28;20037;-75
2021/01/19 05:40:09;;;;;;;10.85;4.55;;;6.10;92.50;;;;;;5048549;28;20028;-73
2021/01/19 05:42:35;;;;;;;15.38;4.70;;;6.10;92.60;;;;;;5048498;28;20511;-73
2021/01/19 05:45:08;;;;;;;18.33;4.88;;;6.10;92.50;;;;;;5043906;28;20045;-74
2021/01/19 05:47:34;;;;;;;14.35;4.57;;;6.10;92.60;;;;;;5045372;28;20037;-75
2021/01/19 05:50:00;;;;;;;11.70;4.65;;;6.10;92.60;;;;;;5045966;28;20426;-74
2021/01/19 05:52:31;;;;;;;18.50;5.22;;;6.10;92.60;;;;;;5044633;28;20048;-75
2021/01/19 05:54:58;;;;;;;10.38;4.00;;;6.00;92.70;;;;;;5044294;28;20140;-74
2021/01/19 05:57:25;;;;;;;14.27;4.78;;;6.10;92.70;;;;;;5043894;28;20056;-74
2021/01/19 05:59:55;;;;;;;15.13;5.05;;;6.10;92.70;;;;;;5044739;28;20387;-74
2021/01/19 06:02:23;;;;;;;11.10;4.90;;;6.10;92.80;;;;;;5050097;28;20032;-76
2021/01/19 06:04:50;;;;;;;14.35;5.13;;;6.10;92.80;;;;;;5052325;28;20040;-72
2021/01/19 06:07:25;;;;;;;15.57;5.47;;;6.10;92.90;;;;;;5045639;28;20110;-72
2021/01/19 06:09:53;;;;;;;12.35;4.53;;;6.10;92.90;;;;;;5052406;28;20108;-75
2021/01/19 06:12:19;;;;;;;11.50;4.53;;;6.10;92.90;;;;;;5047255;28;20061;-73
2021/01/19 06:14:50;;;;;;;15.65;4.97;;;6.10;93.00;;;;;;5048297;28;20029;-76
2021/01/19 06:17:20;;;;;;;12.52;4.80;;;6.10;93.10;;;;;;5044191;28;20021;-76
2021/01/19 06:19:48;;;;;;;10.88;4.53;;;6.10;93.20;;;;;;5048948;28;20025;-75
2021/01/19 06:22:15;;;;;;;14.65;4.95;;;6.20;93.30;;;;;;5045107;28;20033;-74
2021/01/19 06:24:46;;;;;;;9.88;4.70;;;6.20;93.10;;;;;;5054297;28;20507;-75
2021/01/19 06:27:25;;;;;;;12.98;5.20;;;6.20;93.10;;;;;;5046271;28;20033;-73
2021/01/19 06:30:02;;;;;;;10.98;4.65;;;6.30;93.10;;;;;;5048236;28;20037;-72
2021/01/19 06:32:32;;;;;;;12.70;5.18;;;6.40;93.20;;;;;;5045961;28;20119;-73
2021/01/19 06:35:18;;;;;;;11.68;5.07;;;6.30;93.10;;;;;;5046400;28;20037;-73
2021/01/19 06:37:46;;;;;;;13.60;4.60;;;6.40;93.10;;;;;;5050983;28;20044;-73
2021/01/19 06:40:17;;;;;;;13.50;5.00;;;6.40;93.00;;;;;;5044512;28;20029;-76
2021/01/19 06:42:55;;;;;;;11.27;4.82;;;6.40;93.10;;;;;;5045954;28;20091;-73
2021/01/19 06:45:21;;;;;;;10.00;4.65;;;6.40;92.90;;;;;;5040575;28;20071;-73
2021/01/19 06:47:49;;;;;;;13.35;4.30;;;6.40;92.90;;;;;;5043426;28;20120;-76
2021/01/19 06:50:21;;;;;;;9.88;5.00;;;6.50;92.80;;;;;;5040221;28;20040;-74
2021/01/19 06:53:12;;;;;;;11.18;4.85;;;6.40;92.90;;;;;;5039982;28;20044;-73
2021/01/19 06:55:51;;;;;;;8.95;4.60;;;6.40;92.90;;;;;;5040218;28;20464;-74
2021/01/19 06:58:55;;;;;;;10.02;4.85;;;6.40;93.00;;;;;;5037585;28;20079;-74
2021/01/19 07:01:26;;;;;;;13.43;4.75;;;6.40;93.00;;;;;;5034768;28;20079;-73
2021/01/19 07:04:03;;;;;;;9.45;4.55;;;6.40;92.90;;;;;;5038885;28;20430;-73
2021/01/19 07:06:52;;;;;;;11.85;5.13;;;6.40;93.00;;;;;;5044500;28;20452;-73
2021/01/19 07:09:46;;;;;;;12.50;4.53;;;6.40;93.10;;;;;;5036307;28;20083;-73
2021/01/19 07:12:16;;;;;;;11.18;4.80;;;6.40;93.20;;;;;;5034018;28;20106;-74
2021/01/19 07:14:48;;;;;;;11.20;5.18;;;6.30;93.20;;;;;;5042925;28;20047;-74
2021/01/19 07:17:18;;;;;;;11.63;5.03;;;6.30;93.20;;;;;;5042613;28;20124;-74
2021/01/19 07:19:50;;;;;;;11.43;5.18;;;6.30;93.20;;;;;;5046603;28;20037;-74
2021/01/19 07:22:44;;;;;;;10.85;5.65;;;6.30;93.20;;;;;;5041414;28;20100;-76
2021/01/19 07:25:10;;;;;;;11.07;5.35;;;6.30;93.30;;;;;;5041525;28;20025;-75
2021/01/19 07:27:36;;;;;;;10.77;6.13;;;6.40;93.30;;;;;;5043220;28;20090;-73
2021/01/19 07:30:04;;;;;;;10.93;5.40;;;6.40;93.40;;;;;;5046099;28;20116;-77
2021/01/19 07:32:33;;;;;;;10.48;5.35;;;6.30;93.40;;;;;;5042518;28;20020;-73
2021/01/19 07:34:59;;;;;;;10.50;5.75;;;6.40;93.40;;;;;;5043716;28;20118;-75
2021/01/19 07:37:30;;;;;;;13.88;5.32;;;6.30;93.30;;;;;;5041787;28;20029;-73
2021/01/19 07:39:55;;;;;;;11.35;5.70;;;6.40;93.30;;;;;;5044958;28;20029;-76
2021/01/19 07:42:21;;;;;;;12.70;6.13;;;6.30;93.40;;;;;;5042487;28;20092;-75
2021/01/19 07:45:05;;;;;;;10.73;5.60;;;6.40;93.60;;;;;;5045075;28;20363;-76
2021/01/19 07:47:44;;;;;;;10.47;6.20;;;6.40;93.50;;;;;;5047235;28;20041;-74
2021/01/19 07:50:16;;;;;;;12.50;6.22;;;6.40;93.50;;;;;;5051908;28;20037;-75
2021/01/19 07:52:43;;;;;;;9.38;5.93;;;6.40;93.60;;;;;;5056033;28;20056;-78
2021/01/19 07:55:23;;;;;;;10.30;6.68;;;6.40;93.60;;;;;;5041407;28;20357;-75
2021/01/19 07:57:51;;;;;;;12.07;6.38;;;6.40;93.70;;;;;;5043301;28;20043;-70
2021/01/19 08:00:25;;;;;;;10.38;6.70;;;6.50;93.70;;;;;;5040104;28;20386;-70
2021/01/19 08:03:06;;;;;;;10.13;7.05;;;6.50;93.70;;;;;;5039323;28;20048;-70
2021/01/19 08:05:32;;;;;;;11.68;6.95;;;6.60;93.70;;;;;;5042511;28;20029;-70
2021/01/19 08:07:59;;;;;;;11.27;6.63;;;6.60;93.70;;;;;;5042041;28;20063;-71
2021/01/19 08:10:26;;;;;;;10.73;6.45;;;6.60;93.70;;;;;;5040943;28;20037;-70
2021/01/19 08:12:55;;;;;;;10.98;6.72;;;6.60;93.70;;;;;;5040337;28;20431;-73
2021/01/19 08:15:32;;;;;;;10.48;6.60;;;6.70;93.70;;;;;;5039473;28;20114;-70
2021/01/19 08:17:59;;;;;;;9.48;6.30;;;6.70;93.80;;;;;;5042909;28;20452;-70
2021/01/19 08:20:32;;;;;;;10.65;6.18;;;6.80;93.70;;;;;;5039793;28;21131;-70
2021/01/19 08:23:12;;;;;;;11.65;6.63;;;6.90;93.80;;;;;;5041422;28;20094;-70
2021/01/19 08:25:39;;;;;;;9.65;6.00;;;6.90;93.80;;;;;;5041099;28;20218;-71
2021/01/19 08:28:05;;;;;;;9.82;5.82;;;6.90;93.80;;;;;;5042702;28;20037;-70
2021/01/19 08:30:31;;;;;;;8.82;5.80;;;7.00;93.80;;;;;;5038882;28;20136;-70
2021/01/19 08:32:59;;;;;;;12.52;6.13;;;7.00;93.90;;;;;;5040725;28;20465;-70
2021/01/19 08:35:27;;;;;;;9.27;6.25;;;7.10;93.90;;;;;;5040491;28;20032;-71
2021/01/19 08:37:58;;;;;;;8.45;6.32;;;7.10;93.90;;;;;;5044762;28;20060;-70
2021/01/19 08:40:29;;;;;;;8.57;5.90;;;7.10;93.90;;;;;;5040252;28;20056;-73
2021/01/19 08:42:55;;;;;;;11.73;9.13;;;7.20;94.00;;;;;;5044138;28;20437;-71
2021/01/19 08:45:34;;;;;;;12.27;8.98;;;7.20;94.00;;;;;;5046638;28;20049;-71
2021/01/19 08:48:02;;;;;;;10.75;7.03;;;7.30;94.00;;;;;;5045514;28;20040;-71
2021/01/19 08:50:30;;;;;;;16.17;10.55;;;7.30;94.00;;;;;;5046514;28;20037;-70
2021/01/19 08:52:56;;;;;;;10.27;6.00;;;7.30;94.00;;;;;;5049237;28;20036;-69
2021/01/19 08:55:26;;;;;;;11.75;6.57;;;7.40;94.10;;;;;;5046796;28;20033;-71
2021/01/19 08:57:56;;;;;;;10.48;8.02;;;7.40;94.10;;;;;;5063240;28;20436;-71
2021/01/19 09:00:24;;;;;;;11.02;7.93;;;7.50;94.20;;;;;;5046728;28;20091;-71
2021/01/19 09:02:52;;;;;;;9.25;6.95;;;7.60;94.30;;;;;;5046375;28;20424;-71
2021/01/19 09:05:29;;;;;;;9.57;6.78;;;7.60;94.30;;;;;;5044795;28;20064;-70
2021/01/19 09:07:58;;;;;;;12.02;6.55;;;7.60;94.30;;;;;;5046945;28;20041;-70
2021/01/19 09:10:27;;;;;;;12.32;8.18;;;7.70;94.30;;;;;;5045212;28;20033;-73
2021/01/19 09:12:54;;;;;;;10.25;6.95;;;7.70;94.40;;;;;;5044713;28;20037;-70
2021/01/19 09:15:20;;;;;;;10.30;7.30;;;7.80;94.30;;;;;;5042058;28;20430;-70
2021/01/19 09:17:58;;;;;;;9.43;6.85;;;7.80;94.30;;;;;;5045853;28;20037;-71
2021/01/19 09:20:26;;;;;;;9.82;6.88;;;7.90;94.30;;;;;;5035510;28;20029;-75
2021/01/19 09:22:53;;;;;;;10.07;7.18;;;7.90;94.30;;;;;;5043385;28;20040;-73
2021/01/19 09:25:20;;;;;;;11.80;7.63;;;7.90;94.20;;;;;;5043166;28;20029;-73
2021/01/19 09:27:46;;;;;;;9.85;6.70;;;8.00;94.10;;;;;;5045762;28;20090;-71
2021/01/19 09:30:14;;;;;;;13.63;7.53;;;8.00;94.10;;;;;;5047256;28;20044;-72
2021/01/19 09:32:42;;;;;;;10.73;7.15;;;8.00;94.10;;;;;;5044247;28;20033;-71
2021/01/19 09:35:09;;;;;;;10.65;7.20;;;8.00;94.10;;;;;;5045043;28;20463;-73
2021/01/19 09:37:35;;;;;;;10.55;7.68;;;8.00;94.10;;;;;;5046707;28;20435;-68
2021/01/19 09:40:00;;;;;;;10.27;7.35;;;8.00;94.10;;;;;;5043781;28;20440;-71
2021/01/19 09:42:27;;;;;;;10.10;7.30;;;8.10;94.20;;;;;;5045773;28;20037;-72
2021/01/19 09:44:53;;;;;;;12.68;7.28;;;8.10;94.10;;;;;;5043277;28;20037;-70
2021/01/19 09:47:24;;;;;;;10.40;6.20;;;8.20;94.10;;;;;;5045798;28;21227;-71
2021/01/19 09:49:52;;;;;;;11.52;6.72;;;8.20;94.10;;;;;;5046284;28;20047;-71
2021/01/19 09:52:18;;;;;;;9.18;6.25;;;8.30;94.10;;;;;;5045974;28;20031;-72
2021/01/19 09:54:43;;;;;;;10.45;6.20;;;8.30;94.10;;;;;;5046837;28;20032;-73
2021/01/19 09:57:09;;;;;;;11.32;6.00;;;8.40;94.20;;;;;;5043475;28;20049;-72
2021/01/19 09:59:36;;;;;;;9.32;5.50;;;8.40;94.20;;;;;;5046826;28;20115;-70
2021/01/19 10:02:01;;;;;;;9.25;5.90;;;8.50;94.20;;;;;;5043064;28;20519;-70
2021/01/19 10:04:28;;;;;;;7.55;5.22;;;8.60;94.20;;;;;;5046071;28;20052;-70
2021/01/19 10:07:08;;;;;;;9.93;4.95;;;8.60;94.20;;;;;;5044410;28;20029;-70
2021/01/19 10:09:35;;;;;;;9.10;5.15;;;8.70;94.20;;;;;;5047705;28;20484;-70
2021/01/19 10:12:08;;;;;;;10.00;5.78;;;8.60;94.20;;;;;;5045843;28;20041;-70
2021/01/19 10:14:39;;;;;;;9.13;4.68;;;8.70;94.30;;;;;;5043322;28;20037;-69
2021/01/19 10:17:05;;;;;;;7.25;4.50;;;8.80;94.40;;;;;;5045171;28;20040;-69
2021/01/19 10:19:34;;;;;;;10.02;4.88;;;8.90;94.30;;;;;;5048868;28;20045;-69
2021/01/19 10:22:05;;;;;;;9.10;5.03;;;8.90;94.30;;;;;;5040513;28;20131;-70
2021/01/19 10:24:30;;;;;;;8.88;4.72;;;8.90;94.40;;;;;;5045387;28;20060;-71
2021/01/19 10:27:10;;;;;;;8.32;4.45;;;9.00;94.50;;;;;;5042754;28;20045;-71
2021/01/19 10:29:40;;;;;;;11.27;4.25;;;9.00;94.50;;;;;;5043632;28;20119;-71
2021/01/19 10:32:11;;;;;;;7.65;4.18;;;9.10;94.50;;;;;;5045529;28;20040;-72
2021/01/19 10:34:38;;;;;;;7.75;4.07;;;9.10;94.50;;;;;;5043414;28;20032;-71
2021/01/19 10:37:04;;;;;;;10.55;4.22;;;9.10;94.50;;;;;;5045934;28;20128;-71
2021/01/19 10:39:30;;;;;;;7.93;4.10;;;9.20;94.50;;;;;;5045115;28;20124;-70
2021/01/19 10:41:57;;;;;;;8.32;3.72;;;9.20;94.40;;;;;;5044059;28;20033;-71
2021/01/19 10:44:24;;;;;;;8.15;4.15;;;9.20;94.30;;;;;;5045054;28;20120;-71
2021/01/19 10:47:02;;;;;;;9.77;3.92;;;9.20;94.30;;;;;;5043746;28;20443;-70
2021/01/19 10:49:32;;;;;;;10.68;4.70;;;9.30;94.20;;;;;;5052042;28;20148;-73
2021/01/19 10:51:58;;;;;;;9.30;4.00;;;9.40;94.10;;;;;;5051771;28;20029;-70
2021/01/19 10:54:25;;;;;;;6.35;3.80;;;9.40;94.00;;;;;;5048064;28;20033;-71
2021/01/19 10:57:07;;;;;;;8.38;3.53;;;9.40;94.00;;;;;;5054309;28;20124;-70
2021/01/19 10:59:33;;;;;;;6.28;3.80;;;9.50;93.90;;;;;;5043954;28;20090;-71
2021/01/19 11:02:00;;;;;;;11.73;3.90;;;9.50;93.90;;;;;;5045855;28;20043;-73
2021/01/19 11:04:26;;;;;;;6.00;2.78;;;9.60;93.80;;;;;;5046998;28;20045;-72
2021/01/19 11:06:52;;;;;;;7.57;3.13;;;9.60;93.60;;;;;;5045872;28;20040;-70
2021/01/19 11:09:18;;;;;;;5.75;2.72;;;9.60;93.50;;;;;;5048023;28;20037;-71
2021/01/19 11:11:45;;;;;;;6.00;2.53;;;9.70;93.30;;;;;;5044260;28;20438;-72
2021/01/19 11:14:11;;;;;;;6.43;2.63;;;9.70;93.20;;;;;;5045732;28;20028;-72
2021/01/19 11:16:39;;;;;;;5.45;2.88;;;9.70;93.10;;;;;;5050148;28;20025;-69
2021/01/19 11:19:09;;;;;;;5.43;2.35;;;9.70;92.70;;;;;;5047220;28;20037;-72
2021/01/19 11:21:37;;;;;;;6.25;2.75;;;9.80;92.60;;;;;;5051336;28;20037;-71
2021/01/19 11:24:04;;;;;;;5.55;2.35;;;9.80;92.40;;;;;;5048968;28;20033;-71
2021/01/19 11:26:34;;;;;;;5.30;2.70;;;9.80;92.30;;;;;;5053608;28;20078;-71
2021/01/19 11:29:00;;;;;;;6.28;2.92;;;9.80;92.20;;;;;;5053825;28;20056;-70
2021/01/19 11:31:28;;;;;;;4.38;2.65;;;9.80;92.20;;;;;;5054574;28;20021;-71
2021/01/19 11:33:55;;;;;;;5.20;2.80;;;9.80;92.10;;;;;;5046175;28;20724;-70
2021/01/19 11:36:26;;;;;;;5.25;2.63;;;9.80;92.20;;;;;;5046432;28;20124;-72
2021/01/19 11:38:54;;;;;;;4.25;2.50;;;9.90;92.00;;;;;;5050345;28;20079;-71
2021/01/19 11:41:21;;;;;;;5.20;2.90;;;10.00;91.80;;;;;;5061327;28;20029;-72
2021/01/19 11:43:47;;;;;;;4.50;2.42;;;9.90;91.70;;;;;;5052402;28;20436;-72
2021/01/19 11:46:27;;;;;;;4.07;2.55;;;10.00;91.60;;;;;;5048355;28;20120;-73
2021/01/19 11:48:55;;;;;;;3.97;2.60;;;10.00;91.50;;;;;;5066106;28;20056;-72
2021/01/19 11:51:32;;;;;;;5.88;2.95;;;10.00;91.40;;;;;;5047624;28;20087;-73
2021/01/19 11:53:59;;;;;;;5.03;2.80;;;9.90;91.50;;;;;;5057451;28;20028;-71
2021/01/19 11:56:48;;;;;;;4.65;2.50;;;10.00;91.70;;;;;;5046071;28;20029;-73
2021/01/19 11:59:13;;;;;;;5.63;2.83;;;10.00;91.70;;;;;;5052522;28;20155;-72
2021/01/19 12:01:40;;;;;;;4.80;2.42;;;10.00;91.70;;;;;;5050354;28;20059;-71
2021/01/19 12:04:07;;;;;;;5.07;2.53;;;10.10;91.70;;;;;;5046321;28;20045;-72
2021/01/19 12:06:41;;;;;;;5.05;2.70;;;10.10;91.60;;;;;;5052453;28;20041;-72
2021/01/19 12:09:08;;;;;;;6.35;3.03;;;10.10;91.50;;;;;;5045238;28;20484;-73
2021/01/19 12:11:45;;;;;;;6.35;2.78;;;10.10;91.50;;;;;;5043548;28;20158;-72
2021/01/19 12:14:11;;;;;;;5.40;2.78;;;10.10;91.50;;;;;;5049866;28;20036;-72
2021/01/19 12:16:37;;;;;;;7.65;2.60;;;10.10;91.40;;;;;;5048354;28;20029;-71
2021/01/19 12:19:09;;;;;;;5.70;2.30;;;10.10;91.30;;;;;;5047487;28;20051;-71
2021/01/19 12:21:36;;;;;;;5.30;2.60;;;10.10;91.30;;;;;;5045395;28;20029;-71
2021/01/19 12:24:02;;;;;;;6.72;2.50;;;10.10;91.10;;;;;;5046432;28;20064;-70
2021/01/19 12:26:27;;;;;;;4.78;2.22;;;10.20;90.80;;;;;;5048725;28;20037;-72
2021/01/19 12:28:55;;;;;;;7.28;2.72;;;10.20;90.80;;;;;;5047543;28;20337;-74
2021/01/19 12:31:21;;;;;;;6.88;2.88;;;10.20;90.80;;;;;;5048219;28;20522;-70
2021/01/19 12:33:46;;;;;;;7.00;2.78;;;10.30;90.70;;;;;;5048701;28;20056;-70
2021/01/19 12:36:12;;;;;;;5.75;2.45;;;10.20;90.60;;;;;;5046641;28;20114;-69
2021/01/19 12:38:38;;;;;;;5.15;2.45;;;10.30;90.30;;;;;;5047787;28;20041;-71
2021/01/19 12:41:04;;;;;;;5.70;2.50;;;10.30;90.30;;;;;;5044422;28;20044;-73
2021/01/19 12:43:30;;;;;;;4.95;2.13;;;10.30;90.30;;;;;;5056562;28;20033;-71
2021/01/19 12:45:55;;;;;;;5.70;2.20;;;10.20;90.20;;;;;;5048717;28;20029;-71
2021/01/19 12:48:21;;;;;;;5.53;2.30;;;10.30;90.00;;;;;;5045186;28;20041;-71
2021/01/19 12:50:48;;;;;;;5.22;2.30;;;10.30;89.60;;;;;;5048227;28;20472;-71
2021/01/19 12:53:13;;;;;;;5.45;2.28;;;10.30;89.80;;;;;;5045614;28;20059;-71
2021/01/19 12:55:39;;;;;;;5.47;2.70;;;10.40;89.90;;;;;;5044538;28;20484;-71
2021/01/19 12:58:05;;;;;;;6.13;2.92;;;10.40;89.80;;;;;;5050240;28;20399;-71
2021/01/19 13:00:31;;;;;;;4.72;2.50;;;10.40;89.40;;;;;;5046311;28;20044;-71